createdAt,value
2018-04-10T00:01:21.939Z,7.53
2018-04-10T00:03:48.576Z,7.23
2018-04-10T00:06:15.267Z,8.27
2018-04-10T00:08:41.969Z,9.60
2018-04-10T00:11:08.612Z,8.00
2018-04-10T00:13:35.282Z,7.90
2018-04-10T00:16:01.958Z,7.97
2018-04-10T00:18:28.812Z,7.63
2018-04-10T00:20:55.496Z,8.63
2018-04-10T00:23:22.197Z,7.97
2018-04-10T00:25:48.890Z,8.53
2018-04-10T00:28:15.806Z,7.97
2018-04-10T00:30:42.477Z,7.43
2018-04-10T00:33:09.145Z,8.47
2018-04-10T00:35:35.834Z,8.17
2018-04-10T00:38:02.578Z,7.50
2018-04-10T00:40:29.291Z,7.07
2018-04-10T00:42:55.937Z,7.03
2018-04-10T00:45:22.627Z,7.00
2018-04-10T00:47:49.310Z,7.23
2018-04-10T00:50:16.210Z,6.60
2018-04-10T00:52:42.858Z,7.33
2018-04-10T00:55:09.612Z,7.17
2018-04-10T00:57:36.503Z,8.67
2018-04-10T01:00:03.169Z,6.67
2018-04-10T01:02:29.839Z,7.03
2018-04-10T01:04:56.533Z,6.73
2018-04-10T01:07:23.177Z,6.70
2018-04-10T01:09:49.873Z,6.40
2018-04-10T01:12:16.547Z,6.00
2018-04-10T01:14:43.235Z,6.50
2018-04-10T01:17:09.927Z,5.87
2018-04-10T01:19:36.587Z,6.57
2018-04-10T01:22:03.279Z,5.67
2018-04-10T01:24:30.032Z,6.63
2018-04-10T01:26:56.709Z,6.00
2018-04-10T01:29:23.401Z,5.90
2018-04-10T01:31:50.104Z,6.27
2018-04-10T01:34:16.781Z,6.13
2018-04-10T01:36:43.456Z,6.00
2018-04-10T01:39:10.133Z,5.80
2018-04-10T01:41:36.850Z,4.80
2018-04-10T01:44:03.767Z,5.93
2018-04-10T01:46:30.457Z,5.73
2018-04-10T01:48:57.128Z,5.73
2018-04-10T01:51:23.834Z,6.03
2018-04-10T01:53:50.777Z,5.20
2018-04-10T01:56:17.484Z,5.23
2018-04-10T01:58:44.186Z,5.77
2018-04-10T02:01:10.892Z,5.70
2018-04-10T02:03:37.589Z,6.03
2018-04-10T02:06:04.295Z,5.47
2018-04-10T02:08:30.956Z,6.00
2018-04-10T02:16:09.896Z,4.97
2018-04-10T02:18:36.579Z,5.30
2018-04-10T02:21:03.278Z,5.47
2018-04-10T02:23:29.952Z,5.40
2018-04-10T02:25:56.667Z,5.10
2018-04-10T02:28:23.333Z,5.47
2018-04-10T02:30:50.040Z,6.10
2018-04-10T02:33:16.734Z,5.10
2018-04-10T02:35:43.407Z,5.00
2018-04-10T02:38:10.075Z,4.93
2018-04-10T02:40:36.747Z,5.00
2018-04-10T02:43:03.424Z,5.50
2018-04-10T02:45:30.428Z,5.40
2018-04-10T02:47:57.097Z,6.67
2018-04-10T02:50:23.751Z,4.97
2018-04-10T02:52:50.429Z,4.80
2018-04-10T02:55:17.100Z,5.10
2018-04-10T02:57:43.900Z,5.57
2018-04-10T03:00:10.756Z,5.73
2018-04-10T03:02:37.436Z,5.03
2018-04-10T03:05:04.135Z,5.93
2018-04-10T03:07:30.840Z,4.90
2018-04-10T03:09:57.515Z,5.30
2018-04-10T03:12:24.233Z,5.30
2018-04-10T03:14:51.043Z,5.00
2018-04-10T03:17:33.653Z,5.50
2018-04-10T03:20:00.431Z,4.77
2018-04-10T03:22:27.239Z,6.00
2018-04-10T03:24:54.040Z,4.70
2018-04-10T03:27:20.808Z,5.20
2018-04-10T03:29:47.545Z,4.90
2018-04-10T03:32:14.319Z,5.00
2018-04-10T03:34:41.061Z,5.10
2018-04-10T03:37:07.815Z,5.10
2018-04-10T03:39:34.542Z,5.20
2018-04-10T03:42:01.538Z,5.47
2018-04-10T03:44:28.356Z,5.50
2018-04-10T03:46:55.212Z,5.67
2018-04-10T03:49:22.058Z,5.43
2018-04-10T03:51:48.759Z,5.77
2018-04-10T03:54:15.493Z,6.00
2018-04-10T03:56:42.168Z,4.83
2018-04-10T03:59:08.928Z,4.70
2018-04-10T04:01:35.726Z,5.30
2018-04-10T04:04:02.422Z,4.77
2018-04-10T04:06:29.130Z,4.07
2018-04-10T04:08:55.790Z,5.83
2018-04-10T04:11:22.478Z,5.60
2018-04-10T04:13:49.184Z,4.53
2018-04-10T04:16:21.753Z,5.20
2018-04-10T04:18:54.159Z,6.40
2018-04-10T04:21:26.814Z,6.17
2018-04-10T04:23:53.529Z,5.87
2018-04-10T04:26:20.255Z,5.60
2018-04-10T04:28:47.165Z,5.87
2018-04-10T04:31:13.872Z,6.00
2018-04-10T04:33:40.583Z,4.77
2018-04-10T04:36:07.301Z,5.20
2018-04-10T04:38:33.982Z,5.37
2018-04-10T04:41:00.824Z,5.67
2018-04-10T04:43:27.530Z,5.30
2018-04-10T04:45:54.339Z,5.73
2018-04-10T04:48:20.991Z,5.10
2018-04-10T04:50:47.724Z,6.40
2018-04-10T04:53:14.621Z,6.27
2018-04-10T04:55:41.378Z,5.80
2018-04-10T04:58:08.029Z,5.90
2018-04-10T05:00:34.743Z,6.27
2018-04-10T05:03:01.433Z,6.00
2018-04-10T05:05:28.127Z,5.57
2018-04-10T05:07:54.827Z,5.87
2018-04-10T05:10:21.492Z,6.30
2018-04-10T05:12:48.163Z,6.60
2018-04-10T05:15:14.835Z,5.83
2018-04-10T05:17:41.532Z,6.53
2018-04-10T05:20:08.230Z,7.27
2018-04-10T05:22:34.897Z,6.47
2018-04-10T05:25:01.564Z,7.10
2018-04-10T05:27:28.256Z,6.60
2018-04-10T05:29:54.967Z,6.13
2018-04-10T05:32:21.620Z,7.20
2018-04-10T05:34:48.469Z,6.13
2018-04-10T05:37:15.155Z,6.93
2018-04-10T05:39:42.328Z,6.30
2018-04-10T05:42:09.009Z,6.23
2018-04-10T05:44:35.730Z,6.50
2018-04-10T05:47:02.416Z,6.80
2018-04-10T05:49:29.189Z,6.77
2018-04-10T05:51:55.875Z,6.33
2018-04-10T05:54:22.612Z,6.03
2018-04-10T05:56:49.339Z,7.07
2018-04-10T05:59:16.015Z,6.10
2018-04-10T06:01:42.686Z,6.13
2018-04-10T06:04:09.363Z,5.80
2018-04-10T06:06:36.079Z,6.47
2018-04-10T06:09:02.826Z,5.60
2018-04-10T06:11:29.488Z,6.30
2018-04-10T06:13:56.203Z,6.70
2018-04-10T06:16:23.044Z,6.73
2018-04-10T06:18:49.809Z,6.30
2018-04-10T06:21:16.500Z,5.67
2018-04-10T06:23:43.155Z,6.13
2018-04-10T06:26:09.817Z,6.00
2018-04-10T06:28:36.603Z,5.73
2018-04-10T06:31:03.305Z,5.37
2018-04-10T06:33:29.966Z,5.93
2018-04-10T06:35:56.617Z,6.53
2018-04-10T06:38:23.320Z,5.77
2018-04-10T06:40:50.079Z,5.77
2018-04-10T06:43:16.788Z,6.83
2018-04-10T06:45:43.587Z,6.23
2018-04-10T06:48:10.326Z,6.33
2018-04-10T06:50:37.024Z,7.27
2018-04-10T06:53:03.713Z,6.50
2018-04-10T06:55:30.379Z,6.67
2018-04-10T06:57:57.054Z,7.40
2018-04-10T07:00:23.723Z,7.87
2018-04-10T07:02:50.438Z,6.90
2018-04-10T07:05:17.102Z,6.13
2018-04-10T07:07:43.811Z,6.27
2018-04-10T07:10:10.511Z,6.53
2018-04-10T07:12:37.305Z,6.37
2018-04-10T07:15:04.105Z,6.37
2018-04-10T07:17:30.812Z,6.63
2018-04-10T07:19:57.497Z,5.67
2018-04-10T07:22:24.492Z,6.00
2018-04-10T07:24:51.322Z,6.70
2018-04-10T07:27:18.335Z,6.00
2018-04-10T07:29:45.305Z,6.23
2018-04-10T07:32:12.005Z,7.13
2018-04-10T07:34:38.838Z,5.83
2018-04-10T07:37:05.883Z,5.53
2018-04-10T07:39:32.542Z,7.23
2018-04-10T07:41:59.961Z,5.57
2018-04-10T07:44:26.784Z,6.17
2018-04-10T07:46:53.482Z,6.47
2018-04-10T07:49:20.171Z,5.60
2018-04-10T07:51:46.873Z,6.47
2018-04-10T07:54:13.603Z,6.07
2018-04-10T07:56:40.592Z,5.57
2018-04-10T07:59:07.402Z,5.90
2018-04-10T08:01:34.151Z,6.50
2018-04-10T08:04:01.187Z,6.53
2018-04-10T08:06:28.041Z,5.90
2018-04-10T08:08:54.865Z,5.93
2018-04-10T08:11:21.693Z,6.03
2018-04-10T08:13:48.491Z,6.30
2018-04-10T08:16:15.209Z,5.70
2018-04-10T08:18:42.017Z,5.60
2018-04-10T08:21:08.707Z,5.90
2018-04-10T08:23:35.395Z,5.43
2018-04-10T08:26:02.186Z,4.90
2018-04-10T08:28:29.020Z,5.43
2018-04-10T08:30:55.895Z,5.33
2018-04-10T08:33:22.967Z,4.83
2018-04-10T08:35:49.832Z,5.70
2018-04-10T08:38:16.711Z,5.30
2018-04-10T08:40:43.477Z,5.63
2018-04-10T08:43:10.298Z,5.60
2018-04-10T08:45:37.090Z,5.80
2018-04-10T08:48:04.005Z,5.17
2018-04-10T08:50:30.855Z,5.30
2018-04-10T08:52:57.791Z,5.77
2018-04-10T08:55:24.480Z,6.00
2018-04-10T08:57:51.194Z,6.13
2018-04-10T09:00:17.973Z,5.83
2018-04-10T09:02:44.809Z,5.57
2018-04-10T09:05:11.558Z,5.80
2018-04-10T09:07:38.435Z,5.67
2018-04-10T09:10:05.265Z,5.50
2018-04-10T09:12:32.072Z,5.77
2018-04-10T09:14:58.749Z,6.23
2018-04-10T09:17:26.652Z,5.77
2018-04-10T09:19:54.093Z,6.50
2018-04-10T09:22:21.791Z,5.50
2018-04-10T09:24:52.175Z,5.87
2018-04-10T09:27:19.563Z,5.97
2018-04-10T09:29:47.232Z,5.73
2018-04-10T09:32:14.946Z,5.27
2018-04-10T09:34:41.826Z,5.00
2018-04-10T09:37:09.989Z,5.97
2018-04-10T09:39:37.651Z,6.00
2018-04-10T09:42:08.117Z,6.30
2018-04-10T09:44:35.818Z,6.30
2018-04-10T09:47:03.943Z,5.27
2018-04-10T09:49:30.616Z,5.37
2018-04-10T09:51:58.331Z,5.53
2018-04-10T09:54:25.026Z,6.20
2018-04-10T09:56:52.184Z,4.87
2018-04-10T09:59:18.976Z,5.67
2018-04-10T10:01:45.661Z,5.57
2018-04-10T10:04:12.356Z,4.87
2018-04-10T10:06:39.240Z,5.73
2018-04-10T10:09:06.469Z,5.17
2018-04-10T10:11:33.789Z,5.20
2018-04-10T10:14:00.712Z,5.60
2018-04-10T10:16:28.417Z,5.93
2018-04-10T10:18:55.111Z,4.90
2018-04-10T10:21:23.648Z,5.17
2018-04-10T10:23:50.440Z,5.57
2018-04-10T10:26:17.169Z,4.80
2018-04-10T10:28:43.861Z,5.23
2018-04-10T10:31:11.277Z,5.53
2018-04-10T10:33:39.594Z,5.10
2018-04-10T10:36:06.281Z,4.77
2018-04-10T10:38:33.192Z,5.33
2018-04-10T10:40:59.978Z,5.55
2018-04-10T10:43:26.694Z,5.32
2018-04-10T10:45:53.412Z,5.90
2018-04-10T10:48:20.111Z,5.07
2018-04-10T10:50:46.874Z,4.80
2018-04-10T10:53:13.613Z,4.70
2018-04-10T10:55:40.988Z,5.33
2018-04-10T10:58:07.764Z,4.85
2018-04-10T11:00:34.568Z,6.20
2018-04-10T11:03:01.342Z,5.73
2018-04-10T11:05:28.053Z,5.78
2018-04-10T11:07:55.587Z,5.68
2018-04-10T11:10:23.822Z,4.95
2018-04-10T11:12:51.309Z,4.30
2018-04-10T11:15:18.659Z,4.78
2018-04-10T11:17:45.321Z,5.05
2018-04-10T11:20:12.044Z,6.35
2018-04-10T11:22:39.482Z,5.18
2018-04-10T11:25:06.279Z,5.25
2018-04-10T11:27:33.006Z,4.95
2018-04-10T11:29:59.751Z,4.43
2018-04-10T11:32:26.531Z,4.97
2018-04-10T11:34:54.077Z,4.72
2018-04-10T11:37:20.753Z,5.30
2018-04-10T11:39:47.545Z,5.45
2018-04-10T11:42:14.265Z,5.10
2018-04-10T11:44:42.876Z,4.30
2018-04-10T11:47:09.582Z,4.62
2018-04-10T11:49:37.134Z,4.82
2018-04-10T11:52:03.818Z,4.40
2018-04-10T11:54:30.573Z,4.60
2018-04-10T11:56:57.357Z,5.05
2018-04-10T11:59:26.699Z,4.75
2018-04-10T12:01:57.436Z,4.93
2018-04-10T12:04:24.262Z,4.70
2018-04-10T12:06:51.113Z,4.87
2018-04-10T12:09:18.021Z,5.28
2018-04-10T12:11:44.801Z,5.28
2018-04-10T12:14:11.557Z,6.12
2018-04-10T12:16:38.239Z,6.10
2018-04-10T12:19:04.968Z,6.47
2018-04-10T12:21:31.679Z,6.43
2018-04-10T12:23:58.349Z,5.95
2018-04-10T12:26:25.040Z,7.28
2018-04-10T12:28:51.834Z,6.40
2018-04-10T12:31:18.599Z,7.18
2018-04-10T12:33:46.044Z,6.03
2018-04-10T12:36:12.745Z,6.45
2018-04-10T12:38:39.682Z,6.43
2018-04-10T12:41:06.507Z,6.37
2018-04-10T12:43:33.372Z,6.30
2018-04-10T12:46:00.050Z,6.30
2018-04-10T12:48:26.754Z,6.90
2018-04-10T12:50:53.440Z,5.57
2018-04-10T12:53:20.312Z,5.93
2018-04-10T12:55:47.042Z,5.50
2018-04-10T12:58:13.748Z,5.93
2018-04-10T13:00:40.441Z,6.32
2018-04-10T13:03:07.154Z,5.50
2018-04-10T13:05:33.857Z,6.15
2018-04-10T13:08:01.167Z,6.05
2018-04-10T13:10:27.834Z,6.03
2018-04-10T13:12:54.583Z,6.20
2018-04-10T13:15:24.177Z,5.87
2018-04-10T13:17:51.444Z,5.72
2018-04-10T13:20:18.082Z,6.55
2018-04-10T13:22:44.861Z,6.40
2018-04-10T13:25:12.534Z,6.07
2018-04-10T13:27:40.036Z,5.68
2018-04-10T13:30:06.959Z,6.45
2018-04-10T13:32:33.645Z,6.18
2018-04-10T13:35:00.380Z,5.80
2018-04-10T13:37:27.043Z,5.78
2018-04-10T13:39:53.758Z,5.70
2018-04-10T13:42:20.460Z,5.90
2018-04-10T13:44:47.180Z,6.30
2018-04-10T13:47:13.820Z,6.50
2018-04-10T13:49:40.506Z,6.25
2018-04-10T13:52:07.149Z,8.68
2018-04-10T13:54:33.859Z,6.70
2018-04-10T13:57:01.393Z,6.15
2018-04-10T13:59:28.093Z,6.55
2018-04-10T14:01:54.756Z,6.75
2018-04-10T14:04:21.441Z,6.70
2018-04-10T14:06:48.128Z,5.00
2018-04-10T14:09:14.804Z,5.82
2018-04-10T14:11:41.621Z,6.75
2018-04-10T14:14:08.312Z,6.93
2018-04-10T14:16:34.991Z,6.47
2018-04-10T14:19:02.381Z,6.90
2018-04-10T14:21:29.062Z,6.03
2018-04-10T14:23:55.737Z,6.10
2018-04-10T14:26:22.476Z,5.50
2018-04-10T14:28:49.134Z,6.18
2018-04-10T14:31:15.828Z,7.82
2018-04-10T14:33:43.371Z,6.32
2018-04-10T14:36:10.087Z,6.30
2018-04-10T14:38:36.791Z,6.28
2018-04-10T14:41:03.628Z,6.72
2018-04-10T14:43:30.333Z,6.87
2018-04-10T14:45:57.028Z,6.65
2018-04-10T14:48:23.715Z,5.80
2018-04-10T14:50:51.336Z,5.22
2018-04-10T14:53:19.062Z,5.68
2018-04-10T14:55:45.808Z,5.68
2018-04-10T14:58:13.386Z,6.12
2018-04-10T15:00:40.073Z,5.75
2018-04-10T15:03:06.786Z,5.50
2018-04-10T15:05:33.465Z,5.87
2018-04-10T15:08:00.159Z,6.18
2018-04-10T15:10:26.841Z,5.40
2018-04-10T15:12:53.559Z,6.57
2018-04-10T15:15:20.257Z,5.50
2018-04-10T15:17:47.082Z,5.55
2018-04-10T15:20:14.600Z,5.65
2018-04-10T15:22:41.306Z,5.20
2018-04-10T15:25:07.994Z,5.43
2018-04-10T15:27:34.712Z,5.53
2018-04-10T15:30:01.404Z,6.37
2018-04-10T15:32:28.080Z,5.70
2018-04-10T15:34:54.778Z,6.10
2018-04-10T15:37:21.434Z,6.03
2018-04-10T15:39:48.115Z,5.00
2018-04-10T15:42:14.768Z,5.80
2018-04-10T15:44:41.460Z,5.53
2018-04-10T15:47:08.188Z,5.77
2018-04-10T15:49:34.859Z,5.17
2018-04-10T15:52:01.579Z,5.78
2018-04-10T15:54:28.263Z,5.28
2018-04-10T15:56:54.947Z,4.83
2018-04-10T15:59:21.622Z,6.25
2018-04-10T16:01:49.208Z,5.27
2018-04-10T16:04:15.877Z,5.47
2018-04-10T16:06:42.584Z,5.83
2018-04-10T16:09:09.239Z,5.03
2018-04-10T16:11:35.924Z,6.28
2018-04-10T16:14:02.614Z,6.17
2018-04-10T16:16:29.319Z,5.27
2018-04-10T16:18:56.031Z,5.63
2018-04-10T16:21:22.890Z,6.15
2018-04-10T16:23:49.575Z,5.67
2018-04-10T16:26:16.341Z,4.57
2018-04-10T16:28:43.015Z,5.23
2018-04-10T16:31:09.703Z,4.77
2018-04-10T16:33:36.373Z,6.07
2018-04-10T16:36:03.032Z,5.17
2018-04-10T16:38:29.737Z,5.67
2018-04-10T16:40:56.464Z,5.33
2018-04-10T16:43:23.187Z,4.90
2018-04-10T16:45:49.995Z,4.77
2018-04-10T16:48:16.715Z,5.10
2018-04-10T16:50:43.466Z,5.27
2018-04-10T16:53:10.178Z,6.07
2018-04-10T16:55:36.819Z,4.27
2018-04-10T16:58:03.501Z,5.97
2018-04-10T17:00:33.561Z,4.90
2018-04-10T17:03:01.105Z,4.80
2018-04-10T17:05:27.807Z,4.60
2018-04-10T17:07:54.500Z,4.77
2018-04-10T17:10:21.172Z,4.43
2018-04-10T17:12:47.870Z,4.47
2018-04-10T17:15:14.548Z,4.50
2018-04-10T17:17:41.250Z,5.30
2018-04-10T17:20:08.134Z,4.13
2018-04-10T17:22:34.824Z,4.80
2018-04-10T17:25:01.528Z,4.70
2018-04-10T17:27:28.183Z,5.30
2018-04-10T17:29:54.857Z,4.03
2018-04-10T17:32:21.541Z,5.27
2018-04-10T17:34:48.258Z,4.60
2018-04-10T17:37:14.958Z,5.77
2018-04-10T17:39:41.594Z,4.83
2018-04-10T17:42:08.264Z,4.47
2018-04-10T17:44:34.911Z,4.37
2018-04-10T17:47:01.618Z,4.03
2018-04-10T17:49:28.296Z,4.90
2018-04-10T17:51:55.008Z,5.40
2018-04-10T17:54:21.753Z,4.57
2018-04-10T17:56:48.496Z,4.50
2018-04-10T17:59:15.166Z,4.00
2018-04-10T18:01:41.835Z,4.10
2018-04-10T18:04:08.615Z,4.30
2018-04-10T18:06:35.255Z,5.07
2018-04-10T18:09:01.942Z,4.17
2018-04-10T18:11:28.639Z,4.73
2018-04-10T18:13:55.454Z,4.17
2018-04-10T18:16:23.495Z,4.03
2018-04-10T18:18:50.176Z,3.87
2018-04-10T18:21:16.929Z,3.77
2018-04-10T18:23:43.633Z,3.83
2018-04-10T18:26:10.334Z,3.50
2018-04-10T18:28:36.979Z,4.43
2018-04-10T18:31:03.906Z,4.30
2018-04-10T18:33:30.617Z,4.27
2018-04-10T18:35:57.272Z,4.43
2018-04-10T18:38:23.959Z,3.70
2018-04-10T18:40:50.632Z,3.90
2018-04-10T18:43:48.920Z,3.60
2018-04-10T18:46:15.591Z,4.13
2018-04-10T18:48:42.307Z,3.40
2018-04-10T18:51:08.957Z,3.13
2018-04-10T18:53:35.640Z,5.00
2018-04-10T18:56:02.354Z,4.23
2018-04-10T18:58:29.047Z,4.00
2018-04-10T19:00:55.718Z,3.30
2018-04-10T19:03:22.374Z,4.30
2018-04-10T19:05:49.096Z,3.70
2018-04-10T19:08:15.937Z,3.37
2018-04-10T19:10:42.679Z,4.20
2018-04-10T19:13:09.321Z,3.53
2018-04-10T19:15:36.008Z,3.73
2018-04-10T19:18:02.703Z,3.70
2018-04-10T19:20:29.401Z,5.07
2018-04-10T19:22:56.137Z,4.00
2018-04-10T19:25:22.853Z,3.67
2018-04-10T19:27:49.646Z,4.53
2018-04-10T19:30:16.324Z,3.83
2018-04-10T19:32:42.981Z,4.00
2018-04-10T19:35:09.710Z,3.40
2018-04-10T19:37:36.435Z,3.50
2018-04-10T19:40:03.139Z,4.47
2018-04-10T19:42:29.809Z,4.13
2018-04-10T19:44:56.453Z,3.57
2018-04-10T19:47:23.979Z,3.70
2018-04-10T19:49:50.638Z,3.77
2018-04-10T19:52:17.343Z,3.47
2018-04-10T19:54:44.022Z,4.30
2018-04-10T19:57:10.712Z,3.43
2018-04-10T19:59:37.347Z,4.10
2018-04-10T20:02:04.059Z,4.93
2018-04-10T20:04:30.751Z,6.50
2018-04-10T20:06:57.440Z,3.73
2018-04-10T20:09:24.120Z,3.10
2018-04-10T20:11:50.849Z,4.30
2018-04-10T20:14:17.658Z,4.57
2018-04-10T20:16:44.369Z,4.40
2018-04-10T20:19:11.070Z,4.50
2018-04-10T20:21:37.748Z,4.43
2018-04-10T20:24:04.390Z,3.67
2018-04-10T20:26:31.104Z,4.10
2018-04-10T20:28:57.778Z,3.90
2018-04-10T20:31:24.436Z,3.43
2018-04-10T20:33:51.144Z,4.13
2018-04-10T20:36:17.817Z,3.80
2018-04-10T20:38:44.490Z,4.80
2018-04-10T20:41:11.216Z,3.43
2018-04-10T20:43:38.116Z,4.10
2018-04-10T20:46:04.820Z,4.63
2018-04-10T20:48:31.500Z,3.40
2018-04-10T20:50:58.203Z,4.13
2018-04-10T20:53:24.905Z,3.70
2018-04-10T20:55:51.584Z,3.73
2018-04-10T20:58:18.252Z,4.57
2018-04-10T21:00:45.002Z,3.33
2018-04-10T21:03:11.674Z,3.87
2018-04-10T21:05:38.334Z,4.10
2018-04-10T21:08:05.053Z,4.43
2018-04-10T21:10:31.952Z,5.53
2018-04-10T21:12:58.622Z,3.57
2018-04-10T21:15:25.314Z,4.07
2018-04-10T21:17:52.005Z,4.13
2018-04-10T21:20:18.784Z,3.70
2018-04-10T21:22:45.507Z,4.40
2018-04-10T21:25:12.210Z,4.13
2018-04-10T21:27:38.922Z,4.10
2018-04-10T21:30:05.745Z,3.20
2018-04-10T21:32:32.454Z,3.37
2018-04-10T21:34:59.206Z,3.87
2018-04-10T21:37:25.890Z,3.43
2018-04-10T21:39:52.538Z,3.20
2018-04-10T21:42:19.284Z,3.43
2018-04-10T21:44:45.947Z,3.87
2018-04-10T21:47:12.689Z,4.83
2018-04-10T21:49:39.363Z,4.20
2018-04-10T21:52:06.043Z,3.87
2018-04-10T21:54:32.788Z,3.17
2018-04-10T21:56:59.500Z,3.57
2018-04-10T21:59:26.208Z,3.27
2018-04-10T22:01:52.992Z,3.17
2018-04-10T22:04:19.674Z,3.27
2018-04-10T22:06:46.370Z,3.30
2018-04-10T22:09:13.034Z,3.93
2018-04-10T22:11:39.738Z,4.03
2018-04-10T22:14:06.457Z,3.70
2018-04-10T22:16:33.139Z,2.97
2018-04-10T22:18:59.902Z,3.47
2018-04-10T22:21:26.731Z,3.40
2018-04-10T22:23:53.429Z,3.57
2018-04-10T22:26:20.114Z,5.67
2018-04-10T22:28:46.814Z,3.30
2018-04-10T22:31:13.491Z,4.57
2018-04-10T22:33:42.231Z,3.03
2018-04-10T22:36:09.809Z,3.63
2018-04-10T22:38:39.576Z,3.40
2018-04-10T22:41:06.360Z,3.00
2018-04-10T22:43:33.667Z,3.17
2018-04-10T22:46:00.323Z,2.97
2018-04-10T22:48:27.034Z,3.07
2018-04-10T22:50:53.726Z,3.23
2018-04-10T22:53:20.400Z,3.30
2018-04-10T22:55:47.243Z,3.70
2018-04-10T22:58:13.930Z,2.87
2018-04-10T23:00:55.563Z,3.80
2018-04-10T23:03:22.217Z,2.80
2018-04-10T23:05:48.921Z,3.80
2018-04-10T23:08:15.605Z,3.07
2018-04-10T23:10:42.295Z,3.57
2018-04-10T23:13:08.968Z,2.90
2018-04-10T23:15:35.624Z,3.97
2018-04-10T23:18:02.318Z,3.53
2018-04-10T23:20:28.996Z,3.27
2018-04-10T23:22:55.652Z,2.60
2018-04-10T23:25:22.383Z,2.83
2018-04-10T23:27:49.093Z,3.90
2018-04-10T23:30:15.745Z,2.53
2018-04-10T23:32:42.418Z,2.73
2018-04-10T23:35:09.043Z,2.93
2018-04-10T23:37:35.735Z,2.80
2018-04-10T23:40:02.387Z,2.43
2018-04-10T23:42:29.151Z,3.23
2018-04-10T23:44:55.824Z,2.60
2018-04-10T23:47:22.558Z,3.80
2018-04-10T23:49:49.388Z,2.93
2018-04-10T23:52:16.073Z,3.30
2018-04-10T23:54:42.728Z,2.63
2018-04-10T23:57:09.422Z,2.60
2018-04-10T23:59:36.147Z,2.77
